Terminal Aerodrome Forecast
Issued by NWS

Current Version | Previous Version | Graphics & Text | Print | Product List | Glossary On
Versions: 1 2 3 4 5 6 7 8 9 10 11 12 13 14 15 16 17 18 19 20 21 22 23 24 25 26 27 28 29 30 31 32 33 34 35 36 37 38 39 40 41 42
825
FTUS41 KRNK 191024 AAD
TAFLWB
TAF AMD
KLWB 191024Z 1910/2006 30006KT P6SM -SHRA OVC035
      TEMPO 1910/1912 BKN028
     FM191400 28015G30KT P6SM VCSH OVC030
     FM191900 31012G22KT P6SM OVC040
     FM200000 32010G18KT P6SM BKN050=

USA.gov is the U.S. government's official web portal to all federal, state and local government web resources and services.